Time;durP1;ratioP1;P1;durP2;ratioP2;P2;SDS_P1;SDS_P2;PMS_P1;PMS_P2;Temp;Humidity;BMP_temperature;BMP_pressure;BME280_temperature;BME280_humidity;BME280_pressure;Samples;Min_cycle;Max_cycle;Signal;HPM_P1;HPM_P2
2021/03/09 00:01:57;;;;;;;20.20;7.37;;;-2.30;99.90;;;;;;4440691;32;20147;-74
2021/03/09 00:04:23;;;;;;;18.97;7.67;;;-2.30;99.90;;;;;;4427873;32;20216;-77
2021/03/09 00:06:50;;;;;;;16.27;7.40;;;-2.30;99.90;;;;;;4435344;32;20224;-74
2021/03/09 00:09:17;;;;;;;17.90;7.73;;;-2.30;99.90;;;;;;4436068;32;20154;-74
2021/03/09 00:11:43;;;;;;;17.17;7.57;;;-2.40;99.90;;;;;;4429750;32;20156;-74
2021/03/09 00:14:10;;;;;;;22.47;8.60;;;-2.40;99.90;;;;;;4439149;32;20427;-75
2021/03/09 00:16:36;;;;;;;22.17;8.03;;;-2.30;99.90;;;;;;4431534;32;20154;-75
2021/03/09 00:19:03;;;;;;;19.57;7.83;;;-2.40;99.90;;;;;;4433890;32;20190;-74
2021/03/09 00:21:30;;;;;;;21.40;8.07;;;-2.40;99.90;;;;;;4437057;32;20386;-74
2021/03/09 00:23:56;;;;;;;19.70;7.90;;;-2.40;99.90;;;;;;4428938;32;20165;-75
2021/03/09 00:26:23;;;;;;;15.93;7.27;;;-2.40;99.90;;;;;;4437333;32;20147;-74
2021/03/09 00:28:49;;;;;;;17.97;7.87;;;-2.40;99.90;;;;;;4433157;32;20163;-74
2021/03/09 00:31:16;;;;;;;17.87;7.93;;;-2.50;99.90;;;;;;4432275;32;20426;-75
2021/03/09 00:33:42;;;;;;;19.23;7.50;;;-2.50;99.90;;;;;;4438532;32;20161;-75
2021/03/09 00:36:09;;;;;;;20.07;8.30;;;-2.50;99.90;;;;;;4428713;32;20245;-74
2021/03/09 00:38:36;;;;;;;17.27;7.57;;;-2.50;99.90;;;;;;4422414;32;20234;-74
2021/03/09 00:41:02;;;;;;;16.33;6.90;;;-2.50;99.90;;;;;;4434052;32;20368;-74
2021/03/09 00:43:29;;;;;;;21.73;7.60;;;-2.50;99.90;;;;;;4430397;32;20246;-74
2021/03/09 00:45:55;;;;;;;19.77;8.00;;;-2.40;99.90;;;;;;4438675;32;20196;-74
2021/03/09 00:48:22;;;;;;;18.07;8.07;;;-2.40;99.90;;;;;;4429721;32;20178;-74
2021/03/09 00:50:49;;;;;;;21.23;8.20;;;-2.50;99.90;;;;;;4434310;32;20186;-74
2021/03/09 00:53:15;;;;;;;19.40;7.60;;;-2.40;99.90;;;;;;4434683;32;20221;-74
2021/03/09 00:55:42;;;;;;;18.33;7.30;;;-2.40;99.90;;;;;;4435293;32;20177;-74
2021/03/09 00:58:08;;;;;;;19.77;8.03;;;-2.50;99.90;;;;;;4427025;32;20493;-74
2021/03/09 01:00:35;;;;;;;20.77;8.23;;;-2.50;99.90;;;;;;4429903;32;20170;-74
2021/03/09 01:03:02;;;;;;;15.77;7.00;;;-2.60;99.90;;;;;;4438210;32;20164;-74
2021/03/09 01:05:28;;;;;;;20.63;8.50;;;-2.70;99.90;;;;;;4431296;32;20194;-74
2021/03/09 01:07:56;;;;;;;18.67;7.27;;;-2.70;99.90;;;;;;4423727;32;20154;-74
2021/03/09 01:10:23;;;;;;;19.07;8.40;;;-2.70;99.90;;;;;;4423236;32;20178;-74
2021/03/09 01:12:49;;;;;;;20.73;8.20;;;-2.60;99.90;;;;;;4435771;32;20170;-73
2021/03/09 01:15:16;;;;;;;20.40;7.77;;;-2.60;99.90;;;;;;4430228;32;20530;-74
2021/03/09 01:17:42;;;;;;;19.37;7.77;;;-2.60;99.90;;;;;;4425528;32;20181;-74
2021/03/09 01:20:10;;;;;;;15.70;7.40;;;-2.60;99.90;;;;;;4426619;32;20139;-74
2021/03/09 01:22:37;;;;;;;21.37;7.93;;;-2.50;99.90;;;;;;4425600;32;20148;-74
2021/03/09 01:25:05;;;;;;;22.13;7.50;;;-2.50;99.90;;;;;;4425517;32;20208;-74
2021/03/09 01:27:31;;;;;;;17.93;7.27;;;-2.60;99.90;;;;;;4425086;32;20147;-74
2021/03/09 01:29:58;;;;;;;20.17;8.57;;;-2.60;99.90;;;;;;4425791;32;20528;-74
2021/03/09 01:32:25;;;;;;;20.20;7.53;;;-2.60;99.90;;;;;;4425505;32;20170;-74
2021/03/09 01:34:52;;;;;;;18.37;7.70;;;-2.70;99.90;;;;;;4425212;32;20151;-74
2021/03/09 01:37:18;;;;;;;15.40;7.37;;;-2.70;99.90;;;;;;4424926;32;20224;-74
2021/03/09 01:39:45;;;;;;;17.50;8.00;;;-2.70;99.90;;;;;;4425352;32;20147;-74
2021/03/09 01:42:11;;;;;;;18.93;7.20;;;-2.80;99.90;;;;;;4425379;32;20165;-74
2021/03/09 01:44:39;;;;;;;19.77;7.80;;;-2.80;99.90;;;;;;4424587;32;20170;-74
2021/03/09 01:47:06;;;;;;;20.27;8.17;;;-2.80;99.90;;;;;;4425448;32;20166;-74
2021/03/09 01:49:37;;;;;;;17.70;8.00;;;-2.80;99.90;;;;;;4425283;32;20166;-74
2021/03/09 01:52:07;;;;;;;20.23;7.70;;;-2.80;99.90;;;;;;4426469;32;20234;-74
2021/03/09 01:54:35;;;;;;;15.03;7.47;;;-2.80;99.90;;;;;;4425137;32;20466;-74
2021/03/09 01:57:02;;;;;;;19.90;7.47;;;-2.80;99.90;;;;;;4425074;32;20173;-74
2021/03/09 01:59:30;;;;;;;18.73;7.77;;;-2.70;99.90;;;;;;4425235;32;20171;-74
2021/03/09 02:01:57;;;;;;;17.60;7.80;;;-2.70;99.90;;;;;;4426178;32;20200;-74
2021/03/09 02:04:25;;;;;;;20.33;8.23;;;-2.80;99.90;;;;;;4424761;32;20164;-74
2021/03/09 02:06:51;;;;;;;22.50;8.13;;;-2.70;99.90;;;;;;4425490;32;20142;-74
2021/03/09 02:09:20;;;;;;;17.17;7.73;;;-2.90;99.90;;;;;;4425139;32;20162;-74
2021/03/09 02:12:14;;;;;;;21.67;8.27;;;-2.80;99.90;;;;;;4424858;32;20135;-74
2021/03/09 02:14:57;;;;;;;19.53;7.60;;;-2.80;99.90;;;;;;4348015;33;20184;-74
2021/03/09 02:17:57;;;;;;;15.07;7.40;;;-2.80;99.90;;;;;;4347738;33;20194;-74
2021/03/09 02:20:47;;;;;;;20.43;7.27;;;-2.90;99.90;;;;;;4347172;33;20207;-74
2021/03/09 02:23:51;;;;;;;18.43;7.47;;;-2.90;99.90;;;;;;4347614;33;20223;-74
2021/03/09 02:26:32;;;;;;;19.63;7.67;;;-2.90;99.90;;;;;;4347661;33;20471;-74
2021/03/09 02:29:14;;;;;;;14.57;7.13;;;-3.00;99.90;;;;;;4347396;33;20548;-74
2021/03/09 02:31:44;;;;;;;16.13;6.70;;;-2.90;99.90;;;;;;4347656;33;20159;-74
2021/03/09 02:34:15;;;;;;;17.67;7.37;;;-2.90;99.90;;;;;;4347207;33;20202;-74
2021/03/09 02:36:44;;;;;;;18.03;7.57;;;-2.80;99.90;;;;;;4349567;33;20379;-74
2021/03/09 02:39:12;;;;;;;17.33;7.33;;;-2.80;99.90;;;;;;4347468;33;20211;-74
2021/03/09 02:41:43;;;;;;;17.37;7.43;;;-2.70;99.90;;;;;;4347210;33;20588;-74
2021/03/09 02:44:20;;;;;;;19.27;6.87;;;-2.70;99.90;;;;;;4347237;33;20143;-74
2021/03/09 02:46:48;;;;;;;21.53;7.50;;;-2.80;99.90;;;;;;4348426;33;20156;-74
2021/03/09 02:49:27;;;;;;;15.57;7.23;;;-2.80;99.90;;;;;;4347450;33;20220;-74
2021/03/09 02:51:54;;;;;;;17.47;7.47;;;-2.80;99.90;;;;;;4393718;32;20169;-74
2021/03/09 02:54:22;;;;;;;16.13;7.70;;;-3.00;99.90;;;;;;4425918;32;20499;-74
2021/03/09 02:56:50;;;;;;;18.47;7.40;;;-3.00;99.90;;;;;;4424259;32;20342;-74
2021/03/09 02:59:19;;;;;;;19.03;7.70;;;-3.00;99.90;;;;;;4424357;32;20458;-74
2021/03/09 03:01:49;;;;;;;17.10;7.53;;;-3.00;99.90;;;;;;4424640;32;20225;-74
2021/03/09 03:04:19;;;;;;;19.00;6.87;;;-3.00;99.90;;;;;;4424169;32;20194;-74
2021/03/09 03:06:50;;;;;;;17.83;7.00;;;-3.00;99.90;;;;;;4425094;32;20132;-74
2021/03/09 03:09:18;;;;;;;18.00;7.30;;;-3.00;99.90;;;;;;4424366;32;20435;-74
2021/03/09 03:11:46;;;;;;;18.00;7.10;;;-3.00;99.90;;;;;;4424056;32;20156;-74
2021/03/09 03:14:14;;;;;;;15.00;6.67;;;-3.00;99.90;;;;;;4424305;32;20173;-75
2021/03/09 03:16:42;;;;;;;17.87;7.30;;;-3.00;99.90;;;;;;4424262;32;20147;-74
2021/03/09 03:19:11;;;;;;;19.23;6.97;;;-2.90;99.90;;;;;;4423789;32;20167;-74
2021/03/09 03:21:39;;;;;;;17.90;7.03;;;-2.90;99.90;;;;;;4424143;32;20198;-74
2021/03/09 03:24:09;;;;;;;18.03;7.63;;;-2.90;99.90;;;;;;4423718;32;20147;-74
2021/03/09 03:26:40;;;;;;;15.97;6.80;;;-2.90;99.90;;;;;;4424233;32;20492;-74
2021/03/09 03:29:08;;;;;;;16.50;7.07;;;-2.90;99.90;;;;;;4425006;32;20459;-74
2021/03/09 03:31:35;;;;;;;13.70;6.23;;;-2.90;99.90;;;;;;4423691;32;20213;-74
2021/03/09 03:34:03;;;;;;;13.97;6.10;;;-2.90;99.90;;;;;;4426666;32;20155;-74
2021/03/09 03:36:37;;;;;;;17.10;7.17;;;-2.90;99.90;;;;;;4427257;32;20461;-74
2021/03/09 03:39:06;;;;;;;14.90;6.43;;;-2.90;99.90;;;;;;4427191;32;20143;-74
2021/03/09 03:41:33;;;;;;;17.83;7.17;;;-3.00;99.90;;;;;;4427185;32;20396;-74
2021/03/09 03:44:00;;;;;;;17.70;6.73;;;-2.90;99.90;;;;;;4426898;32;20200;-74
2021/03/09 03:46:27;;;;;;;15.93;6.67;;;-2.90;99.90;;;;;;4427028;32;20162;-74
2021/03/09 03:48:54;;;;;;;14.60;6.70;;;-3.00;99.90;;;;;;4427022;32;20147;-74
2021/03/09 03:51:28;;;;;;;14.07;6.50;;;-3.00;99.90;;;;;;4427293;32;20185;-74
2021/03/09 03:54:15;;;;;;;17.07;6.83;;;-3.00;99.90;;;;;;4427231;32;20142;-74
2021/03/09 03:56:44;;;;;;;15.60;6.53;;;-3.00;99.90;;;;;;4427134;32;20555;-74
2021/03/09 03:59:18;;;;;;;17.70;6.67;;;-3.00;99.90;;;;;;4426887;32;20174;-74
2021/03/09 04:01:46;;;;;;;15.87;6.70;;;-3.00;99.90;;;;;;4426757;32;20362;-74
2021/03/09 04:04:15;;;;;;;14.23;6.87;;;-3.10;99.90;;;;;;4426765;32;20169;-74
2021/03/09 04:06:48;;;;;;;19.90;6.83;;;-3.00;99.90;;;;;;4427198;32;20454;-74
2021/03/09 04:09:16;;;;;;;17.83;6.50;;;-3.10;99.90;;;;;;4426971;32;20190;-74
2021/03/09 04:11:43;;;;;;;14.80;6.40;;;-3.10;99.90;;;;;;4426688;32;20158;-74
2021/03/09 04:14:12;;;;;;;16.33;6.60;;;-3.10;99.90;;;;;;4426680;32;20211;-74
2021/03/09 04:16:42;;;;;;;17.20;6.87;;;-3.10;99.90;;;;;;4426557;32;20175;-74
2021/03/09 04:19:12;;;;;;;15.17;6.80;;;-3.20;99.90;;;;;;4426704;32;20170;-74
2021/03/09 04:21:41;;;;;;;15.23;6.97;;;-3.20;99.90;;;;;;4426649;32;20175;-74
2021/03/09 04:24:09;;;;;;;17.83;7.10;;;-3.20;99.90;;;;;;4426504;32;20161;-74
2021/03/09 04:26:36;;;;;;;20.87;7.70;;;-3.20;99.90;;;;;;4426923;32;20140;-74
2021/03/09 04:29:03;;;;;;;18.13;7.40;;;-3.20;99.90;;;;;;4426318;32;20226;-74
2021/03/09 04:31:30;;;;;;;16.83;7.13;;;-3.30;99.90;;;;;;4426478;32;20143;-74
2021/03/09 04:33:57;;;;;;;21.43;7.67;;;-3.20;99.90;;;;;;4426602;32;20150;-74
2021/03/09 04:36:25;;;;;;;17.93;7.70;;;-3.20;99.90;;;;;;4426539;32;20222;-74
2021/03/09 04:38:52;;;;;;;18.77;7.50;;;-3.30;99.90;;;;;;4425801;32;20205;-74
2021/03/09 04:41:19;;;;;;;15.57;7.20;;;-3.30;99.90;;;;;;4426200;32;20546;-74
2021/03/09 04:43:45;;;;;;;18.13;7.43;;;-3.40;99.90;;;;;;4427684;32;20154;-74
2021/03/09 04:46:12;;;;;;;18.53;7.47;;;-3.40;99.90;;;;;;4426237;32;20141;-74
2021/03/09 04:48:39;;;;;;;15.83;7.23;;;-3.40;99.90;;;;;;4426745;32;20609;-74
2021/03/09 04:51:10;;;;;;;19.20;7.43;;;-3.40;99.90;;;;;;4426049;32;20143;-74
2021/03/09 04:53:38;;;;;;;16.97;7.23;;;-3.50;99.90;;;;;;4426110;32;20164;-74
2021/03/09 04:56:05;;;;;;;18.33;7.70;;;-3.40;99.90;;;;;;4425778;32;20200;-74
2021/03/09 04:58:32;;;;;;;16.03;7.57;;;-3.40;99.90;;;;;;4425980;32;20171;-74
2021/03/09 05:00:58;;;;;;;16.70;6.60;;;-3.40;99.90;;;;;;4426162;32;20195;-74
2021/03/09 05:03:25;;;;;;;14.90;6.90;;;-3.40;99.90;;;;;;4425853;32;20146;-74
2021/03/09 05:05:52;;;;;;;17.60;6.57;;;-3.40;99.90;;;;;;4425434;32;20197;-74
2021/03/09 05:08:20;;;;;;;15.03;6.43;;;-3.30;99.90;;;;;;4425970;32;20227;-74
2021/03/09 05:10:47;;;;;;;17.90;6.50;;;-3.30;99.90;;;;;;4427311;32;20145;-74
2021/03/09 05:13:15;;;;;;;13.20;6.13;;;-3.30;99.90;;;;;;4425677;32;20171;-74
2021/03/09 05:15:42;;;;;;;16.93;6.43;;;-3.30;99.90;;;;;;4425783;32;20158;-74
2021/03/09 05:18:09;;;;;;;15.73;6.23;;;-3.30;99.90;;;;;;4425886;32;20342;-74
2021/03/09 05:20:36;;;;;;;14.90;6.43;;;-3.40;99.90;;;;;;4425820;32;20169;-74
2021/03/09 05:23:03;;;;;;;16.63;7.70;;;-3.40;99.90;;;;;;4425637;32;20146;-74
2021/03/09 05:25:29;;;;;;;14.67;7.77;;;-3.40;99.90;;;;;;4425664;32;20182;-74
2021/03/09 05:27:56;;;;;;;19.00;7.60;;;-3.40;99.90;;;;;;4427059;32;20218;-74
2021/03/09 05:30:23;;;;;;;22.53;8.57;;;-3.40;99.90;;;;;;4425619;32;20177;-74
2021/03/09 05:32:50;;;;;;;17.17;7.70;;;-3.30;99.90;;;;;;4426739;32;20168;-74
2021/03/09 05:35:18;;;;;;;18.90;8.00;;;-3.30;99.90;;;;;;4425595;32;20504;-74
2021/03/09 05:37:46;;;;;;;20.13;8.80;;;-3.30;99.90;;;;;;4426259;32;20147;-74
2021/03/09 05:40:15;;;;;;;16.67;7.43;;;-3.20;99.90;;;;;;4425387;32;20167;-74
2021/03/09 05:42:45;;;;;;;20.63;9.03;;;-3.20;99.90;;;;;;4425290;32;20153;-74
2021/03/09 05:45:12;;;;;;;22.07;8.20;;;-3.20;99.90;;;;;;4427047;32;20423;-74
2021/03/09 05:47:39;;;;;;;16.23;7.30;;;-3.20;99.90;;;;;;4425140;32;20167;-74
2021/03/09 05:50:07;;;;;;;21.87;8.10;;;-3.10;99.90;;;;;;4425136;32;20166;-74
2021/03/09 05:52:36;;;;;;;19.37;7.67;;;-3.00;99.90;;;;;;4425200;32;20146;-74
2021/03/09 05:55:08;;;;;;;24.37;8.90;;;-3.00;99.90;;;;;;4425067;32;20146;-74
2021/03/09 05:57:34;;;;;;;17.50;8.30;;;-3.00;99.90;;;;;;4425395;32;20143;-74
2021/03/09 06:00:03;;;;;;;17.00;7.90;;;-2.90;99.90;;;;;;4424535;32;20474;-74
2021/03/09 06:02:30;;;;;;;19.13;8.30;;;-2.80;99.90;;;;;;4424859;32;20397;-74
2021/03/09 06:04:57;;;;;;;17.40;8.10;;;-2.70;99.90;;;;;;4424571;32;20182;-74
2021/03/09 06:07:23;;;;;;;20.70;8.90;;;-2.60;99.90;;;;;;4424666;32;20135;-74
2021/03/09 06:09:50;;;;;;;24.10;8.47;;;-2.50;99.90;;;;;;4425145;32;20143;-74
2021/03/09 06:12:21;;;;;;;20.77;8.47;;;-2.40;99.90;;;;;;4424832;32;20139;-74
2021/03/09 06:14:59;;;;;;;21.70;8.50;;;-2.30;99.90;;;;;;4424886;32;20159;-74
2021/03/09 06:17:29;;;;;;;18.90;8.60;;;-2.10;99.90;;;;;;4424947;32;20177;-74
2021/03/09 06:20:17;;;;;;;20.27;8.23;;;-2.10;99.90;;;;;;4425070;32;20147;-74
2021/03/09 06:22:55;;;;;;;19.03;8.00;;;-2.00;99.90;;;;;;4424266;32;20170;-74
2021/03/09 06:25:29;;;;;;;21.73;8.77;;;-1.90;99.90;;;;;;4425999;32;20151;-74
2021/03/09 06:28:04;;;;;;;20.30;8.10;;;-1.90;99.90;;;;;;4424754;32;20148;-74
2021/03/09 06:30:34;;;;;;;19.50;8.10;;;-1.80;99.90;;;;;;4424731;32;20144;-74
2021/03/09 06:33:01;;;;;;;17.00;7.33;;;-1.60;99.90;;;;;;4424579;32;20142;-74
2021/03/09 06:35:30;;;;;;;16.30;7.23;;;-1.60;99.90;;;;;;4423998;32;20174;-74
2021/03/09 06:38:31;;;;;;;19.03;7.13;;;-1.50;99.90;;;;;;4424450;32;20155;-74
2021/03/09 06:41:16;;;;;;;10.77;4.90;;;-1.40;99.90;;;;;;4424533;32;20138;-74
2021/03/09 06:44:03;;;;;;;10.80;5.10;;;-1.40;99.90;;;;;;4423832;32;20207;-74
2021/03/09 06:46:44;;;;;;;13.60;4.70;;;-1.30;99.90;;;;;;4425696;32;20159;-74
2021/03/09 06:49:10;;;;;;;12.60;5.07;;;-1.20;99.90;;;;;;4425915;32;20169;-74
2021/03/09 06:51:38;;;;;;;9.10;4.33;;;-1.10;99.90;;;;;;4424456;32;20395;-74
2021/03/09 06:54:10;;;;;;;8.70;4.60;;;-1.00;99.90;;;;;;4423766;32;20199;-74
2021/03/09 06:56:39;;;;;;;9.80;4.33;;;-0.90;99.90;;;;;;4425849;32;20437;-74
2021/03/09 06:59:22;;;;;;;8.90;4.00;;;-0.90;99.90;;;;;;4424375;32;20142;-74
2021/03/09 07:02:13;;;;;;;9.33;4.20;;;-0.80;99.90;;;;;;4424386;32;20215;-74
2021/03/09 07:04:45;;;;;;;6.57;3.70;;;-0.70;99.90;;;;;;4423653;32;20221;-75
2021/03/09 07:07:15;;;;;;;7.80;3.50;;;-0.70;99.70;;;;;;4409439;32;20171;-74
2021/03/09 07:10:11;;;;;;;6.80;3.60;;;-0.60;99.00;;;;;;4425458;32;20451;-74
2021/03/09 07:12:40;;;;;;;8.97;3.40;;;-0.50;98.50;;;;;;4424280;32;20189;-75
2021/03/09 07:15:10;;;;;;;9.47;4.00;;;-0.40;98.00;;;;;;4424197;32;20476;-75
2021/03/09 07:17:39;;;;;;;7.67;3.60;;;-0.40;98.60;;;;;;4424109;32;20155;-74
2021/03/09 07:20:14;;;;;;;10.23;4.00;;;-0.30;98.00;;;;;;4424121;32;20159;-73
2021/03/09 07:22:53;;;;;;;8.03;3.47;;;-0.20;97.30;;;;;;4424132;32;20197;-74
2021/03/09 07:25:20;;;;;;;10.17;3.73;;;-0.10;96.80;;;;;;4424491;32;20473;-74
2021/03/09 07:28:03;;;;;;;8.47;3.90;;;-0.10;96.50;;;;;;4423898;32;20159;-73
2021/03/09 07:30:34;;;;;;;10.10;3.93;;;-0.10;96.60;;;;;;4425579;32;20165;-72
2021/03/09 07:33:02;;;;;;;7.17;3.37;;;-0.10;95.40;;;;;;4423982;32;20499;-73
2021/03/09 07:35:29;;;;;;;6.43;3.80;;;0.00;94.90;;;;;;4424033;32;20173;-73
2021/03/09 07:37:57;;;;;;;9.33;4.10;;;0.00;94.00;;;;;;4424019;32;20155;-74
2021/03/09 07:40:23;;;;;;;10.10;3.90;;;0.10;93.10;;;;;;4425494;32;20147;-74
2021/03/09 07:42:50;;;;;;;12.03;3.80;;;0.10;93.30;;;;;;4423948;32;20173;-73
2021/03/09 07:45:19;;;;;;;9.97;3.77;;;0.10;92.80;;;;;;4423999;32;20142;-74
2021/03/09 07:48:02;;;;;;;7.73;3.17;;;0.00;92.40;;;;;;4424153;32;20232;-74
2021/03/09 07:50:40;;;;;;;10.70;3.30;;;0.20;92.10;;;;;;4410579;32;20150;-74
2021/03/09 07:53:10;;;;;;;10.73;3.40;;;0.20;91.50;;;;;;4423963;32;20209;-74
2021/03/09 07:55:37;;;;;;;11.03;3.20;;;0.20;90.70;;;;;;4423950;32;20188;-74
2021/03/09 07:58:23;;;;;;;6.70;2.63;;;0.20;90.40;;;;;;4423813;32;20151;-73
2021/03/09 08:00:49;;;;;;;5.40;2.73;;;0.30;87.30;;;;;;4424262;32;20431;-73
2021/03/09 08:03:36;;;;;;;5.20;2.70;;;0.40;86.70;;;;;;4423817;32;20146;-74
2021/03/09 08:06:11;;;;;;;6.47;2.90;;;0.50;84.80;;;;;;4423877;32;20154;-74
2021/03/09 08:08:41;;;;;;;5.27;2.87;;;0.50;83.10;;;;;;4423875;32;20154;-73
2021/03/09 08:11:13;;;;;;;8.70;3.30;;;0.60;83.00;;;;;;4423653;32;20139;-73
2021/03/09 08:13:40;;;;;;;5.73;3.10;;;0.70;83.40;;;;;;4425258;32;20193;-75
2021/03/09 08:16:25;;;;;;;10.90;3.67;;;0.70;82.90;;;;;;4424455;32;20170;-75
2021/03/09 08:18:57;;;;;;;11.07;3.50;;;0.90;84.50;;;;;;4425058;32;20381;-74
2021/03/09 08:21:55;;;;;;;5.30;2.93;;;1.20;83.50;;;;;;4426781;32;20199;-75
2021/03/09 08:24:39;;;;;;;6.87;3.10;;;2.00;78.60;;;;;;4349282;33;20227;-75
2021/03/09 08:27:29;;;;;;;7.70;3.27;;;2.80;74.50;;;;;;4349983;33;20148;-75
2021/03/09 08:30:34;;;;;;;6.87;2.97;;;3.60;71.30;;;;;;4349097;33;20449;-74
2021/03/09 08:33:21;;;;;;;7.20;2.90;;;4.20;67.30;;;;;;4348935;33;20203;-74
2021/03/09 08:35:48;;;;;;;6.13;3.07;;;4.30;65.00;;;;;;4348861;33;20491;-75
2021/03/09 08:38:16;;;;;;;7.50;3.07;;;4.50;64.60;;;;;;4348687;33;20236;-74
2021/03/09 08:41:04;;;;;;;10.80;3.43;;;4.60;64.50;;;;;;4349471;33;20442;-73
2021/03/09 08:43:30;;;;;;;9.20;3.60;;;4.90;64.00;;;;;;4348575;33;20178;-76
2021/03/09 08:46:01;;;;;;;6.80;2.70;;;4.90;62.10;;;;;;4348599;33;20150;-76
2021/03/09 08:48:57;;;;;;;7.30;2.97;;;5.00;60.20;;;;;;4349054;33;20149;-76
2021/03/09 08:51:41;;;;;;;6.00;3.23;;;5.00;59.90;;;;;;4303865;33;20159;-75
2021/03/09 08:54:22;;;;;;;10.40;3.53;;;5.10;60.20;;;;;;4304406;33;20157;-75
2021/03/09 08:56:49;;;;;;;10.20;3.83;;;4.90;60.90;;;;;;4304381;33;20197;-76
2021/03/09 08:59:21;;;;;;;6.03;3.10;;;5.00;59.70;;;;;;4315037;33;20236;-76
2021/03/09 09:01:47;;;;;;;9.07;3.47;;;5.30;60.60;;;;;;4350237;33;20158;-77
2021/03/09 09:04:16;;;;;;;6.03;2.97;;;5.70;59.60;;;;;;4362626;32;20224;-76
2021/03/09 09:06:43;;;;;;;14.03;3.00;;;5.10;57.90;;;;;;4363383;32;20173;-76
2021/03/09 09:09:10;;;;;;;8.13;2.80;;;5.50;58.70;;;;;;4363287;32;20192;-76
2021/03/09 09:11:36;;;;;;;7.07;3.00;;;6.00;57.20;;;;;;4362748;32;20426;-76
2021/03/09 09:14:17;;;;;;;8.13;3.03;;;5.90;55.90;;;;;;4366553;32;20180;-76
2021/03/09 09:16:45;;;;;;;8.37;3.10;;;5.70;56.70;;;;;;4363860;32;20166;-77
2021/03/09 09:19:12;;;;;;;8.43;2.80;;;5.60;56.80;;;;;;4370907;32;20159;-74
2021/03/09 09:21:43;;;;;;;7.20;2.97;;;5.60;56.10;;;;;;4366765;32;20174;-75
2021/03/09 09:24:18;;;;;;;6.07;2.60;;;5.80;55.20;;;;;;4363165;32;20147;-76
2021/03/09 09:26:45;;;;;;;8.60;2.40;;;6.20;55.30;;;;;;4366637;32;20222;-76
2021/03/09 09:29:12;;;;;;;6.23;2.80;;;5.90;53.90;;;;;;4409795;32;20172;-76
2021/03/09 09:31:39;;;;;;;4.97;2.17;;;6.10;54.70;;;;;;4409795;32;20194;-76
2021/03/09 09:34:06;;;;;;;5.93;2.50;;;5.80;53.20;;;;;;4411621;32;20386;-76
2021/03/09 09:36:33;;;;;;;7.70;2.30;;;6.10;53.40;;;;;;4410082;32;20503;-75
2021/03/09 09:39:00;;;;;;;5.07;2.20;;;6.20;51.90;;;;;;4410265;32;20251;-77
2021/03/09 09:41:27;;;;;;;7.13;2.23;;;6.40;51.40;;;;;;4410509;32;20151;-77
2021/03/09 09:43:54;;;;;;;5.83;2.47;;;6.60;51.50;;;;;;4408794;32;20142;-75
2021/03/09 09:46:38;;;;;;;7.87;2.40;;;7.00;51.70;;;;;;4410282;32;20222;-75
2021/03/09 09:49:05;;;;;;;4.47;2.20;;;7.50;50.20;;;;;;4410396;32;20190;-76
2021/03/09 09:51:38;;;;;;;5.00;2.63;;;7.20;49.80;;;;;;4418347;32;20169;-76
2021/03/09 09:54:17;;;;;;;5.93;2.50;;;6.70;50.30;;;;;;4423080;32;20202;-76
2021/03/09 09:56:43;;;;;;;6.00;2.50;;;7.00;51.70;;;;;;4424074;32;20519;-76
2021/03/09 09:59:25;;;;;;;7.27;2.43;;;7.70;50.50;;;;;;4417654;32;20244;-73
2021/03/09 10:01:51;;;;;;;7.23;2.30;;;8.10;49.60;;;;;;4415890;32;20167;-73
2021/03/09 10:04:18;;;;;;;5.53;2.70;;;8.00;47.40;;;;;;4418382;32;20623;-73
2021/03/09 10:06:49;;;;;;;7.67;2.70;;;8.00;47.40;;;;;;4448996;32;20161;-72
2021/03/09 10:09:22;;;;;;;6.10;2.90;;;8.20;46.70;;;;;;4430097;32;20238;-72
2021/03/09 10:11:53;;;;;;;6.50;2.33;;;8.50;46.90;;;;;;4445810;32;20230;-73
2021/03/09 10:14:22;;;;;;;6.17;2.70;;;8.90;45.90;;;;;;4441558;32;20197;-72
2021/03/09 10:16:49;;;;;;;6.47;2.83;;;9.40;44.60;;;;;;4441749;32;20159;-73
2021/03/09 10:19:18;;;;;;;8.50;2.80;;;9.80;43.60;;;;;;4424388;32;20162;-73
2021/03/09 10:21:46;;;;;;;6.43;3.10;;;10.20;43.50;;;;;;4452136;32;20150;-72
2021/03/09 10:24:28;;;;;;;9.17;3.30;;;10.50;43.40;;;;;;4443102;32;20158;-72
2021/03/09 10:26:56;;;;;;;6.73;3.13;;;10.00;43.70;;;;;;4455305;32;20217;-74
2021/03/09 10:29:26;;;;;;;6.80;3.13;;;10.10;43.30;;;;;;4456886;32;20158;-73
2021/03/09 10:31:59;;;;;;;11.00;3.33;;;10.10;43.30;;;;;;4456728;32;20169;-73
2021/03/09 10:34:40;;;;;;;6.43;3.10;;;9.50;43.10;;;;;;4455305;32;20165;-73
2021/03/09 10:37:12;;;;;;;15.87;5.37;;;8.50;44.70;;;;;;4456882;32;20184;-74
2021/03/09 10:39:53;;;;;;;6.67;2.87;;;8.30;44.90;;;;;;4456747;32;20339;-73
2021/03/09 10:42:36;;;;;;;9.60;2.77;;;8.50;46.10;;;;;;4455363;32;20182;-72
2021/03/09 10:45:15;;;;;;;6.77;2.60;;;8.70;44.60;;;;;;4456628;32;20199;-72
2021/03/09 10:48:02;;;;;;;5.27;2.63;;;8.50;44.10;;;;;;4455553;32;20286;-72
2021/03/09 10:50:32;;;;;;;5.20;2.40;;;8.70;44.60;;;;;;4455193;32;20226;-73
2021/03/09 10:52:58;;;;;;;5.20;2.53;;;8.80;43.60;;;;;;4455690;32;20468;-72
2021/03/09 10:55:25;;;;;;;6.17;2.50;;;9.20;42.40;;;;;;4455011;32;20188;-72
2021/03/09 10:57:52;;;;;;;6.17;2.80;;;9.70;42.20;;;;;;4455021;32;20153;-72
2021/03/09 11:00:21;;;;;;;4.70;2.60;;;10.40;40.90;;;;;;4455680;32;20201;-73
2021/03/09 11:02:49;;;;;;;6.90;2.60;;;10.90;39.60;;;;;;4454993;32;20211;-74
2021/03/09 11:05:16;;;;;;;7.47;3.00;;;11.40;39.20;;;;;;4455085;32;20162;-73
2021/03/09 11:07:43;;;;;;;5.67;2.80;;;11.50;39.00;;;;;;4454676;32;20228;-73
2021/03/09 11:10:11;;;;;;;5.73;2.73;;;11.10;39.10;;;;;;4454551;32;20281;-74
2021/03/09 11:12:39;;;;;;;7.33;2.80;;;10.80;39.50;;;;;;4455373;32;20142;-73
2021/03/09 11:15:07;;;;;;;9.37;3.20;;;9.70;40.00;;;;;;4454324;32;20480;-74
2021/03/09 11:17:34;;;;;;;7.50;2.90;;;8.70;42.00;;;;;;4454701;32;20225;-73
2021/03/09 11:20:02;;;;;;;7.60;3.00;;;8.10;43.90;;;;;;4454750;32;20142;-73
2021/03/09 11:22:28;;;;;;;5.83;2.70;;;7.70;44.90;;;;;;4454555;32;20138;-73
2021/03/09 11:24:55;;;;;;;5.90;2.40;;;7.50;44.30;;;;;;4454474;32;20162;-73
2021/03/09 11:27:21;;;;;;;5.57;2.43;;;7.20;44.50;;;;;;4454797;32;20437;-74
2021/03/09 11:29:48;;;;;;;5.33;2.50;;;7.30;45.40;;;;;;4454014;32;20141;-73
2021/03/09 11:32:14;;;;;;;5.57;2.83;;;7.10;45.30;;;;;;4453589;32;20497;-73
2021/03/09 11:34:41;;;;;;;5.23;2.87;;;6.70;46.20;;;;;;4426447;32;20402;-73
2021/03/09 11:37:07;;;;;;;6.83;2.80;;;6.50;47.00;;;;;;4436021;32;20168;-76
2021/03/09 11:39:34;;;;;;;7.67;3.00;;;6.20;48.00;;;;;;4430850;32;20168;-76
2021/03/09 11:42:01;;;;;;;8.73;2.83;;;6.10;49.00;;;;;;4445204;32;20490;-76
2021/03/09 11:44:27;;;;;;;5.53;2.70;;;6.00;49.10;;;;;;4442864;32;20202;-73
2021/03/09 11:46:53;;;;;;;6.20;3.07;;;5.50;48.30;;;;;;4440754;32;20205;-75
2021/03/09 11:49:20;;;;;;;5.60;2.67;;;5.50;49.00;;;;;;4431337;32;20156;-74
2021/03/09 11:51:47;;;;;;;6.17;2.50;;;6.20;47.50;;;;;;4452204;32;20162;-73
2021/03/09 11:54:14;;;;;;;6.23;2.23;;;7.60;45.90;;;;;;4456267;32;20233;-72
2021/03/09 11:56:40;;;;;;;4.13;2.10;;;9.40;41.40;;;;;;4457391;32;20173;-73
2021/03/09 11:59:07;;;;;;;4.80;2.03;;;10.30;37.30;;;;;;4457113;32;20177;-73
2021/03/09 12:01:34;;;;;;;5.07;2.10;;;10.70;35.50;;;;;;4457652;32;20179;-73
2021/03/09 12:04:01;;;;;;;4.17;2.30;;;10.50;36.20;;;;;;4457365;32;20139;-73
2021/03/09 12:06:28;;;;;;;6.43;2.53;;;11.30;37.00;;;;;;4458817;32;20162;-73
2021/03/09 12:08:54;;;;;;;7.43;2.87;;;12.00;35.50;;;;;;4457114;32;20198;-73
2021/03/09 12:11:21;;;;;;;5.23;2.73;;;12.10;35.50;;;;;;4457180;32;20172;-74
2021/03/09 12:13:48;;;;;;;6.70;3.00;;;12.40;35.30;;;;;;4458566;32;20566;-74
2021/03/09 12:16:14;;;;;;;4.67;2.70;;;12.40;34.20;;;;;;4457882;32;20487;-74
2021/03/09 12:18:41;;;;;;;5.27;2.90;;;11.90;35.10;;;;;;4457099;32;20176;-75
2021/03/09 12:21:07;;;;;;;5.43;2.70;;;11.70;35.70;;;;;;4456410;32;20176;-75
2021/03/09 12:23:34;;;;;;;7.47;2.80;;;11.60;36.30;;;;;;4456106;32;20198;-73
2021/03/09 12:26:08;;;;;;;5.13;2.53;;;12.00;36.00;;;;;;4457223;32;20214;-72
2021/03/09 12:28:35;;;;;;;6.63;2.57;;;12.10;35.40;;;;;;4458869;32;20195;-72
2021/03/09 12:31:02;;;;;;;7.00;2.50;;;11.70;35.10;;;;;;4458356;32;20177;-74
2021/03/09 12:33:29;;;;;;;4.57;2.37;;;11.20;34.70;;;;;;4458915;32;20253;-73
2021/03/09 12:35:57;;;;;;;5.83;2.30;;;11.10;35.40;;;;;;4457444;32;20138;-73
2021/03/09 12:38:23;;;;;;;4.50;2.23;;;11.50;34.80;;;;;;4456826;32;20146;-73
2021/03/09 12:40:50;;;;;;;5.30;2.50;;;12.40;33.70;;;;;;4457265;32;20189;-73
2021/03/09 12:43:16;;;;;;;5.07;2.23;;;13.50;31.50;;;;;;4458078;32;20227;-74
2021/03/09 12:45:42;;;;;;;4.73;2.20;;;14.20;29.90;;;;;;4458093;32;20189;-74
2021/03/09 12:48:09;;;;;;;5.50;2.10;;;14.80;28.80;;;;;;4457384;32;20344;-74
2021/03/09 12:50:39;;;;;;;4.83;2.00;;;13.60;28.80;;;;;;4458254;32;20186;-75
2021/03/09 12:53:06;;;;;;;4.67;2.23;;;12.60;29.60;;;;;;4456556;32;20291;-74
2021/03/09 12:55:32;;;;;;;3.33;2.00;;;11.90;31.10;;;;;;4456737;32;20149;-74
2021/03/09 12:57:59;;;;;;;5.07;2.10;;;11.20;32.50;;;;;;4457331;32;20484;-73
2021/03/09 13:00:25;;;;;;;4.33;2.10;;;10.50;33.40;;;;;;4456525;32;20195;-74